Time;durP1;ratioP1;P1;durP2;ratioP2;P2;SDS_P1;SDS_P2;PMS_P1;PMS_P2;Temp;Humidity;BMP_temperature;BMP_pressure;BME280_temperature;BME280_humidity;BME280_pressure;Samples;Min_cycle;Max_cycle;Signal;HPM_P1;HPM_P2
2022/06/25 00:02:18;;;;;;;8.40;4.40;;;;;;;19.54;56.38;97456.40;105441;1284;22566;-85
2022/06/25 00:07:33;;;;;;;6.80;4.70;;;;;;;19.52;56.07;97451.76;105418;1284;24529;-86
2022/06/25 00:10:01;;;;;;;9.50;4.70;;;;;;;19.51;56.12;97453.54;105442;1284;23932;-86
2022/06/25 00:12:32;;;;;;;6.40;4.20;;;;;;;19.50;56.03;97455.33;107149;1284;22550;-84
2022/06/25 00:15:05;;;;;;;9.40;4.70;;;;;;;19.50;56.13;97456.48;107693;1284;25399;-87
2022/06/25 00:17:33;;;;;;;10.50;4.60;;;;;;;19.50;56.42;97456.80;105195;1285;22578;-85
2022/06/25 00:20:04;;;;;;;6.70;4.40;;;;;;;19.50;56.24;97458.98;105333;1284;22756;-85
2022/06/25 00:22:32;;;;;;;7.20;4.70;;;;;;;19.49;56.28;97456.24;105255;1284;24394;-85
2022/06/25 00:25:00;;;;;;;6.10;4.60;;;;;;;19.48;56.16;97456.06;105271;1284;22703;-85
2022/06/25 00:27:28;;;;;;;7.60;4.80;;;;;;;19.46;56.27;97456.28;105313;1284;22896;-85
2022/06/25 00:29:57;;;;;;;6.40;4.30;;;;;;;19.44;56.40;97453.67;105329;1284;22719;-85
2022/06/25 00:32:25;;;;;;;8.20;4.70;;;;;;;19.42;56.61;97452.71;105252;1285;22592;-86
2022/06/25 00:34:53;;;;;;;8.20;4.80;;;;;;;19.41;56.51;97455.34;105093;1285;25426;-85
2022/06/25 00:37:21;;;;;;;7.60;4.20;;;;;;;19.40;56.92;97451.11;105320;1284;22636;-86
2022/06/25 00:39:50;;;;;;;6.80;4.60;;;;;;;19.39;56.93;97453.20;105148;1286;22648;-86
2022/06/25 00:42:19;;;;;;;8.40;5.40;;;;;;;19.36;56.78;97449.34;105178;1286;22621;-86
2022/06/25 00:44:46;;;;;;;6.30;4.80;;;;;;;19.34;56.99;97452.18;105191;1285;23966;-84
2022/06/25 00:47:15;;;;;;;8.20;4.30;;;;;;;19.31;57.08;97449.25;105225;1284;22601;-83
2022/06/25 00:49:43;;;;;;;6.00;4.60;;;;;;;19.28;57.21;97450.55;105260;1284;22567;-83
2022/06/25 00:52:14;;;;;;;10.30;4.90;;;;;;;19.25;57.28;97448.70;105166;1285;23989;-83
2022/06/25 00:54:54;;;;;;;6.60;4.70;;;;;;;19.22;57.11;97451.46;105300;1285;22567;-83
2022/06/25 00:57:28;;;;;;;8.10;4.60;;;;;;;19.18;57.05;97451.33;105188;1284;24683;-84
2022/06/25 01:00:06;;;;;;;10.00;4.60;;;;;;;19.16;57.40;97444.64;105051;1285;22562;-83
2022/06/25 01:02:35;;;;;;;7.30;5.00;;;;;;;19.14;57.37;97448.59;105269;1285;22644;-83
2022/06/25 01:05:08;;;;;;;6.40;4.70;;;;;;;19.13;57.55;97447.35;105165;1284;23645;-83
2022/06/25 01:07:37;;;;;;;7.80;5.10;;;;;;;19.11;57.47;97443.63;105152;1285;22581;-83
2022/06/25 01:10:06;;;;;;;8.90;5.00;;;;;;;19.08;57.30;97446.64;105261;1284;24220;-83
2022/06/25 01:12:35;;;;;;;5.40;4.20;;;;;;;19.05;57.15;97444.40;105255;1284;22553;-83
2022/06/25 01:15:09;;;;;;;8.80;4.70;;;;;;;19.03;57.07;97444.45;105269;1284;22559;-83
2022/06/25 01:17:51;;;;;;;6.10;4.40;;;;;;;18.99;57.23;97444.46;105233;1284;24379;-83
2022/06/25 01:20:23;;;;;;;6.00;4.70;;;;;;;18.94;57.16;97452.25;105216;1284;22586;-84
2022/06/25 01:22:56;;;;;;;6.50;4.60;;;;;;;18.90;57.35;97452.58;107255;1285;22598;-83
2022/06/25 01:25:33;;;;;;;5.60;4.30;;;;;;;18.86;57.47;97457.73;105967;1284;22559;-83
2022/06/25 01:28:03;;;;;;;8.10;4.50;;;;;;;18.82;57.94;97453.94;105155;1285;25502;-83
2022/06/25 01:30:31;;;;;;;6.20;4.30;;;;;;;18.80;57.99;97453.34;105301;1284;24414;-84
2022/06/25 01:32:59;;;;;;;6.60;4.50;;;;;;;18.77;57.78;97450.88;105219;1284;25400;-83
2022/06/25 01:35:27;;;;;;;7.10;4.80;;;;;;;18.73;58.07;97450.41;105018;1285;22580;-82
2022/06/25 01:37:55;;;;;;;7.70;4.80;;;;;;;18.69;58.10;97454.44;105108;1284;22660;-82
2022/06/25 01:40:23;;;;;;;6.40;4.80;;;;;;;18.66;57.76;97456.02;105178;1285;22583;-83
2022/06/25 01:43:00;;;;;;;5.90;4.60;;;;;;;18.60;57.92;97459.05;105195;1285;22655;-83
2022/06/25 01:45:34;;;;;;;9.70;4.80;;;;;;;18.56;57.75;97462.40;105233;1284;23621;-84
2022/06/25 01:48:05;;;;;;;6.40;4.80;;;;;;;18.49;57.79;97464.30;105249;1284;23961;-84
2022/06/25 01:50:35;;;;;;;7.80;4.80;;;;;;;18.44;58.05;97465.83;105185;1285;25480;-83
2022/06/25 01:53:05;;;;;;;8.60;4.40;;;;;;;18.39;58.16;97469.48;105194;1284;278006;-84
2022/06/25 01:55:33;;;;;;;8.00;4.90;;;;;;;18.34;58.05;97473.60;105031;1285;22560;-83
2022/06/25 01:58:02;;;;;;;8.00;5.70;;;;;;;18.28;58.45;97472.55;105253;1284;22566;-83
2022/06/25 02:00:32;;;;;;;9.60;5.00;;;;;;;18.24;59.04;97474.88;105321;1284;22525;-83
2022/06/25 02:03:03;;;;;;;11.70;5.40;;;;;;;18.22;59.24;97475.31;105238;1284;22616;-84
2022/06/25 02:08:24;;;;;;;11.00;4.60;;;;;;;18.22;59.48;97480.05;105028;1285;25312;-83
2022/06/25 02:10:52;;;;;;;9.90;5.00;;;;;;;18.22;59.22;97479.83;105437;1284;26670;-84
2022/06/25 02:13:21;;;;;;;8.00;4.50;;;;;;;18.22;59.58;97484.35;105414;1284;22589;-83
2022/06/25 02:15:49;;;;;;;8.80;5.10;;;;;;;18.21;59.69;97484.33;105235;1285;22633;-83
2022/06/25 02:18:23;;;;;;;12.90;5.00;;;;;;;18.22;59.80;97486.67;105269;1284;22644;-83
2022/06/25 02:20:51;;;;;;;6.40;4.90;;;;;;;18.23;59.59;97486.23;105164;1286;22583;-84
2022/06/25 02:23:22;;;;;;;8.90;4.60;;;;;;;18.22;59.34;97484.81;105061;1285;24311;-83
2022/06/25 02:25:50;;;;;;;8.30;4.60;;;;;;;18.22;59.80;97482.86;105203;1285;22569;-83
2022/06/25 02:28:19;;;;;;;8.80;4.70;;;;;;;18.22;59.90;97484.89;105277;1284;24439;-82
2022/06/25 02:30:47;;;;;;;7.80;4.70;;;;;;;18.21;59.63;97486.03;106008;1284;24046;-82
2022/06/25 02:33:15;;;;;;;7.20;5.20;;;;;;;18.19;59.47;97482.87;107116;1284;26647;-83
2022/06/25 02:35:44;;;;;;;8.10;5.30;;;;;;;18.16;59.39;97485.78;105056;1285;22575;-83
2022/06/25 02:38:15;;;;;;;13.20;4.80;;;;;;;18.13;59.35;97487.45;105386;1284;22572;-84
2022/06/25 02:40:47;;;;;;;6.30;4.70;;;;;;;18.10;59.43;97488.93;105263;1284;22684;-83
2022/06/25 02:43:16;;;;;;;8.20;4.80;;;;;;;18.08;59.66;97490.23;105197;1285;22556;-83
2022/06/25 02:45:49;;;;;;;10.60;4.80;;;;;;;18.06;60.01;97493.14;105264;1284;22617;-82
2022/06/25 02:48:18;;;;;;;6.80;4.30;;;;;;;18.06;59.98;97495.39;105205;1285;22665;-82
2022/06/25 02:50:46;;;;;;;8.70;5.00;;;;;;;18.05;59.89;97495.77;105172;1285;25457;-83
2022/06/25 02:53:15;;;;;;;6.30;4.30;;;;;;;18.01;59.95;97496.70;105185;1286;22712;-83
2022/06/25 03:01:20;;;;;;;10.90;4.90;;;;;;;17.87;60.02;97500.35;105258;1284;22575;-83
2022/06/25 03:03:49;;;;;;;10.80;5.20;;;;;;;17.80;60.15;97500.27;105108;1285;23964;-83
2022/06/25 03:06:18;;;;;;;12.30;4.90;;;;;;;17.76;60.32;97500.47;105451;1284;22565;-83
2022/06/25 03:08:47;;;;;;;9.30;5.00;;;;;;;17.72;60.26;97509.26;105079;1285;24292;-83
2022/06/25 03:11:16;;;;;;;6.00;4.60;;;;;;;17.69;60.33;97507.96;105452;1284;25295;-83
2022/06/25 03:13:44;;;;;;;7.60;4.50;;;;;;;17.68;60.52;97509.71;105106;1284;22684;-83
2022/06/25 03:16:13;;;;;;;6.70;4.60;;;;;;;17.66;60.64;97505.95;105376;1284;22721;-83
2022/06/25 03:18:41;;;;;;;8.00;4.90;;;;;;;17.68;60.55;97503.73;105094;1288;25350;-84
2022/06/25 03:21:28;;;;;;;5.70;4.80;;;;;;;17.72;60.71;97502.11;104920;1285;22612;-84
2022/06/25 03:24:03;;;;;;;9.60;4.30;;;;;;;17.78;60.94;97504.73;105350;1284;22595;-84
2022/06/25 03:26:32;;;;;;;11.20;4.40;;;;;;;17.81;61.10;97499.29;105401;1284;22576;-84
2022/06/25 03:29:02;;;;;;;6.70;4.20;;;;;;;17.83;61.06;97501.60;105392;1284;22600;-84
2022/06/25 03:31:31;;;;;;;9.00;4.60;;;;;;;17.88;60.87;97504.98;105254;1285;24235;-83
2022/06/25 03:34:02;;;;;;;7.60;4.10;;;;;;;17.95;60.77;97501.39;105358;1284;22574;-84
2022/06/25 03:36:42;;;;;;;7.40;4.10;;;;;;;18.01;60.76;97502.13;105416;1284;22574;-84
2022/06/25 03:39:10;;;;;;;7.80;4.70;;;;;;;18.07;60.66;97500.85;105050;1285;22607;-84
2022/06/25 03:41:39;;;;;;;7.00;4.60;;;;;;;18.13;60.64;97503.17;105415;1284;22577;-83
2022/06/25 03:44:30;;;;;;;6.20;4.80;;;;;;;18.19;60.45;97502.59;105303;1284;23475;-84
2022/06/25 03:47:04;;;;;;;7.40;4.70;;;;;;;18.23;60.42;97503.37;105392;1285;22697;-83
2022/06/25 03:49:33;;;;;;;6.00;5.40;;;;;;;18.26;60.36;97507.48;104861;1285;22629;-84
2022/06/25 03:52:06;;;;;;;5.60;4.90;;;;;;;18.30;60.36;97508.03;105219;1284;22590;-85
2022/06/25 03:54:35;;;;;;;7.10;5.70;;;;;;;18.34;60.42;97509.91;105389;1284;22548;-85
2022/06/25 03:57:04;;;;;;;6.80;5.00;;;;;;;18.40;60.35;97510.27;105104;1286;24272;-84
2022/06/25 03:59:49;;;;;;;5.50;4.60;;;;;;;18.46;60.42;97510.45;105029;1284;22575;-84
2022/06/25 04:02:23;;;;;;;7.60;6.80;;;;;;;18.52;60.27;97509.33;105238;1285;22513;-84
2022/06/25 04:05:10;;;;;;;7.10;5.10;;;;;;;18.59;60.35;97505.58;105391;1284;22877;-83
2022/06/25 04:07:38;;;;;;;12.20;4.80;;;;;;;18.69;60.42;97507.94;105234;1285;22930;-84
2022/06/25 04:10:07;;;;;;;10.10;4.30;;;;;;;18.79;60.30;97506.52;105331;1285;22565;-84
2022/06/25 04:12:35;;;;;;;6.30;4.20;;;;;;;18.88;60.27;97505.50;105382;1284;22556;-84
2022/06/25 04:15:04;;;;;;;8.50;5.10;;;;;;;18.96;60.30;97505.80;105417;1284;25371;-83
2022/06/25 04:17:32;;;;;;;8.90;4.90;;;;;;;19.04;60.28;97507.11;105026;1284;22701;-83
2022/06/25 04:20:02;;;;;;;7.40;5.40;;;;;;;19.13;60.19;97508.04;105438;1284;23014;-82
2022/06/25 04:22:30;;;;;;;8.70;4.70;;;;;;;19.21;60.12;97511.36;105419;1284;25257;-84
2022/06/25 04:24:58;;;;;;;7.40;4.30;;;;;;;19.29;60.13;97511.05;105062;1285;24776;-82
2022/06/25 04:30:13;;;;;;;10.80;4.70;;;;;;;19.46;59.96;97513.89;104847;1285;24329;-82
2022/06/25 04:32:45;;;;;;;7.10;4.90;;;;;;;19.52;60.01;97519.84;104946;1286;22583;-84
2022/06/25 04:35:16;;;;;;;6.70;5.00;;;;;;;19.57;59.97;97521.40;105399;1284;22570;-84
2022/06/25 04:37:45;;;;;;;8.30;4.40;;;;;;;19.62;59.95;97526.54;105409;1284;22570;-84
2022/06/25 04:40:15;;;;;;;5.70;4.30;;;;;;;19.65;59.91;97527.02;105387;1284;22607;-83
2022/06/25 04:42:46;;;;;;;7.80;4.50;;;;;;;19.70;59.94;97529.04;105465;1284;22568;-84
2022/06/25 04:45:14;;;;;;;9.00;4.70;;;;;;;19.75;60.00;97530.90;104913;1288;24299;-82
2022/06/25 04:48:03;;;;;;;5.90;4.20;;;;;;;19.79;59.93;97534.58;104930;1287;22629;-84
2022/06/25 04:51:09;;;;;;;5.80;4.80;;;;;;;19.81;59.74;97532.95;107687;1284;23793;-82
2022/06/25 04:53:55;;;;;;;7.10;4.00;;;;;;;19.85;59.72;97533.48;106733;1284;22572;-84
2022/06/25 04:57:04;;;;;;;7.70;4.40;;;;;;;19.90;59.61;97534.26;105720;1284;22651;-85
2022/06/25 04:59:36;;;;;;;9.10;4.30;;;;;;;19.94;59.49;97533.77;105626;1284;22569;-84
2022/06/25 05:02:13;;;;;;;6.10;4.00;;;;;;;19.99;59.32;97535.16;105385;1284;25479;-84
2022/06/25 05:04:45;;;;;;;7.00;4.50;;;;;;;20.03;59.24;97539.45;105254;1285;22568;-84
2022/06/25 05:07:13;;;;;;;6.00;4.40;;;;;;;20.09;59.07;97541.55;105031;1285;22595;-82
2022/06/25 05:09:42;;;;;;;7.40;4.60;;;;;;;20.14;59.03;97544.91;105148;1287;24235;-83
2022/06/25 05:13:11;;;;;;;6.90;4.40;;;;;;;20.23;59.00;97549.55;105310;1284;22618;-84
2022/06/25 05:14:59;;;;;;;8.20;4.40;;;;;;;20.35;59.00;97555.50;105222;1285;22600;-83
2022/06/25 05:17:28;;;;;;;7.80;4.40;;;;;;;20.44;58.87;97553.34;105192;1287;22572;-84
2022/06/25 05:19:57;;;;;;;7.40;4.30;;;;;;;20.50;58.79;97552.48;105238;1284;22566;-84
2022/06/25 05:22:25;;;;;;;12.60;5.20;;;;;;;20.53;58.68;97550.83;105167;1285;23117;-84
2022/06/25 05:24:53;;;;;;;5.80;4.70;;;;;;;20.55;58.69;97554.05;104902;1286;24600;-84
2022/06/25 05:27:23;;;;;;;8.00;5.00;;;;;;;20.57;58.43;97552.52;105203;1285;24294;-84
2022/06/25 05:29:51;;;;;;;6.20;5.00;;;;;;;20.62;58.61;97555.33;105340;1284;22690;-83
2022/06/25 05:32:19;;;;;;;7.70;5.10;;;;;;;20.71;58.53;97559.40;105330;1284;22692;-84
2022/06/25 05:34:48;;;;;;;6.10;4.40;;;;;;;20.78;58.57;97554.55;104851;1287;22626;-85
2022/06/25 05:37:17;;;;;;;6.80;4.40;;;;;;;20.81;58.50;97554.28;105295;1284;22891;-84
2022/06/25 05:39:45;;;;;;;6.40;4.10;;;;;;;20.83;58.33;97553.52;104820;1285;22778;-84
2022/06/25 05:42:13;;;;;;;8.60;4.70;;;;;;;20.85;58.33;97552.75;105401;1285;22576;-84
2022/06/25 05:44:41;;;;;;;6.60;4.30;;;;;;;20.90;58.22;97558.27;105281;1285;22554;-85
2022/06/25 05:47:09;;;;;;;7.20;4.70;;;;;;;20.99;58.17;97559.16;105398;1284;25125;-83
2022/06/25 05:49:38;;;;;;;5.90;4.10;;;;;;;21.16;58.09;97562.00;105405;1285;24542;-85
2022/06/25 05:52:06;;;;;;;6.20;4.40;;;;;;;21.35;58.16;97561.08;105274;1285;24313;-83
2022/06/25 05:54:34;;;;;;;5.50;4.00;;;;;;;21.49;57.65;97560.44;105312;1285;22566;-84
2022/06/25 05:57:02;;;;;;;8.60;5.30;;;;;;;21.53;57.57;97552.09;106299;1284;22629;-84
2022/06/25 05:59:30;;;;;;;5.30;4.00;;;;;;;21.68;57.46;97554.26;105837;1285;22603;-83
2022/06/25 06:01:58;;;;;;;5.20;4.00;;;;;;;21.83;57.37;97558.52;105330;1285;24306;-83
2022/06/25 06:04:26;;;;;;;5.20;4.00;;;;;;;21.96;56.85;97557.35;105192;1285;22563;-84
2022/06/25 06:06:55;;;;;;;5.30;4.10;;;;;;;22.07;56.76;97559.45;105035;1285;22566;-84
2022/06/25 06:09:23;;;;;;;8.00;3.70;;;;;;;22.10;56.37;97555.63;105053;1284;22559;-84
2022/06/25 06:11:50;;;;;;;5.80;4.20;;;;;;;22.17;56.44;97555.05;105241;1284;25286;-84
2022/06/25 06:14:22;;;;;;;11.40;4.50;;;;;;;22.27;56.06;97563.50;105214;1285;22582;-83
2022/06/25 06:16:50;;;;;;;5.90;3.80;;;;;;;22.35;55.92;97559.70;105245;1287;24301;-82
2022/06/25 06:19:18;;;;;;;9.20;3.90;;;;;;;22.41;55.66;97562.48;105203;1286;25435;-83
2022/06/25 06:21:46;;;;;;;7.30;4.00;;;;;;;22.48;55.32;97562.75;105256;1284;23953;-84
2022/06/25 06:24:14;;;;;;;6.00;4.10;;;;;;;22.55;55.26;97565.98;105317;1284;22608;-83
2022/06/25 06:26:42;;;;;;;6.50;3.90;;;;;;;22.63;54.91;97563.99;105404;1284;23947;-84
2022/06/25 06:29:10;;;;;;;8.20;4.20;;;;;;;22.64;54.68;97564.39;105357;1283;22566;-84
2022/06/25 06:31:38;;;;;;;6.60;4.30;;;;;;;22.64;54.83;97566.27;105233;1284;22556;-82
2022/06/25 06:34:06;;;;;;;16.80;6.90;;;;;;;22.66;54.78;97567.22;105181;1285;22623;-84
2022/06/25 06:36:34;;;;;;;7.70;4.40;;;;;;;22.70;54.62;97569.73;105404;1284;23297;-83
2022/06/25 06:39:02;;;;;;;5.30;3.60;;;;;;;22.72;54.18;97576.58;105336;1284;22611;-84
2022/06/25 06:41:30;;;;;;;10.90;4.70;;;;;;;22.68;53.84;97581.58;105050;1287;22854;-82
2022/06/25 06:43:58;;;;;;;6.00;4.00;;;;;;;22.71;53.72;97583.08;105409;1285;22635;-84
2022/06/25 06:46:25;;;;;;;6.30;3.90;;;;;;;22.76;53.84;97584.20;105237;1285;22564;-83
2022/06/25 06:48:53;;;;;;;7.90;4.10;;;;;;;22.80;53.45;97581.55;105251;1287;23050;-83
2022/06/25 06:51:22;;;;;;;13.90;4.10;;;;;;;22.83;53.55;97583.75;105348;1284;22573;-83
2022/06/25 06:53:50;;;;;;;5.20;3.60;;;;;;;22.88;53.55;97583.15;105389;1284;23326;-82
2022/06/25 06:56:17;;;;;;;7.20;4.00;;;;;;;22.91;53.35;97586.67;105376;1284;24451;-82
2022/06/25 06:58:46;;;;;;;6.20;4.10;;;;;;;22.87;53.21;97585.50;105237;1285;25245;-83
2022/06/25 07:01:14;;;;;;;5.80;4.60;;;;;;;22.90;53.35;97584.42;105225;1286;24363;-83
2022/06/25 07:03:42;;;;;;;6.50;3.30;;;;;;;22.95;53.21;97583.42;105364;1284;23949;-83
2022/06/25 07:06:10;;;;;;;5.00;3.70;;;;;;;23.02;53.23;97582.50;107396;1284;22486;-82
2022/06/25 07:08:38;;;;;;;5.70;4.00;;;;;;;23.10;53.17;97585.68;106079;1284;22694;-82
2022/06/25 07:11:28;;;;;;;5.40;3.60;;;;;;;23.23;53.26;97586.32;105366;1284;23564;-82
2022/06/25 07:14:04;;;;;;;7.40;3.90;;;;;;;23.40;53.21;97585.71;105306;1284;24432;-84
2022/06/25 07:16:34;;;;;;;7.10;3.50;;;;;;;23.55;53.07;97589.19;104832;1290;25431;-84
2022/06/25 07:19:02;;;;;;;6.60;3.60;;;;;;;23.68;52.98;97589.04;105216;1287;22588;-83
2022/06/25 07:21:30;;;;;;;4.80;3.70;;;;;;;23.79;52.85;97588.98;105335;1285;22583;-83
2022/06/25 07:23:58;;;;;;;6.00;3.90;;;;;;;23.92;52.62;97587.02;105236;1284;24444;-82
2022/06/25 07:26:26;;;;;;;9.60;4.50;;;;;;;24.04;51.89;97585.34;105266;1284;22593;-83
2022/06/25 07:28:54;;;;;;;5.60;3.60;;;;;;;24.14;52.06;97585.88;105327;1281;23859;-83
2022/06/25 07:31:23;;;;;;;9.20;3.60;;;;;;;24.32;52.04;97584.10;105350;1284;23960;-84
2022/06/25 07:33:51;;;;;;;6.30;3.50;;;;;;;24.52;51.41;97579.66;105377;1284;22592;-83
2022/06/25 07:36:19;;;;;;;6.20;3.00;;;;;;;24.65;51.35;97575.29;105364;1284;22562;-83
2022/06/25 07:38:47;;;;;;;3.90;2.90;;;;;;;24.80;50.27;97566.72;105036;1287;22604;-83
2022/06/25 07:41:15;;;;;;;6.00;3.10;;;;;;;24.91;50.31;97566.19;105301;1285;22553;-83
2022/06/25 07:43:43;;;;;;;4.40;3.00;;;;;;;25.05;50.10;97563.52;104857;1287;25419;-82
2022/06/25 07:46:12;;;;;;;6.10;3.00;;;;;;;25.19;50.11;97565.90;105319;1284;22589;-84
2022/06/25 07:48:41;;;;;;;5.20;3.20;;;;;;;25.32;49.82;97564.09;105182;1287;25404;-83
2022/06/25 07:53:56;;;;;;;7.50;3.50;;;;;;;25.64;50.07;97566.28;105377;1284;23079;-84
2022/06/25 07:56:24;;;;;;;4.20;3.20;;;;;;;25.81;49.36;97567.89;105336;1284;23828;-83
2022/06/25 07:58:51;;;;;;;4.40;2.80;;;;;;;25.89;49.20;97571.54;105300;1284;22572;-82
2022/06/25 08:01:19;;;;;;;7.10;3.40;;;;;;;25.99;49.05;97575.70;105256;1287;22897;-83
2022/06/25 08:03:48;;;;;;;5.40;3.20;;;;;;;26.10;48.92;97578.98;105403;1284;22563;-84
2022/06/25 08:06:16;;;;;;;5.40;3.30;;;;;;;26.23;47.51;97579.09;105068;1284;25380;-83
2022/06/25 08:08:44;;;;;;;7.00;4.70;;;;;;;26.29;47.03;97581.31;104806;1288;22891;-82
2022/06/25 08:11:11;;;;;;;5.10;4.20;;;;;;;26.41;47.62;97578.11;105334;1284;22565;-83
2022/06/25 08:13:39;;;;;;;6.10;2.90;;;;;;;26.54;47.21;97583.98;105374;1284;25575;-84
2022/06/25 08:16:09;;;;;;;6.50;2.30;;;;;;;26.65;46.48;97585.67;105194;1287;24316;-84
2022/06/25 08:18:38;;;;;;;4.60;2.40;;;;;;;26.70;45.53;97584.27;105338;1284;24530;-84
2022/06/25 08:21:07;;;;;;;5.80;3.20;;;;;;;26.75;45.35;97587.52;105326;1284;24551;-83
2022/06/25 08:23:35;;;;;;;5.30;3.30;;;;;;;26.83;44.85;97592.09;105242;1284;25252;-84
2022/06/25 08:26:03;;;;;;;4.60;2.60;;;;;;;26.86;43.59;97595.91;105073;1284;22791;-83
2022/06/25 08:28:31;;;;;;;5.00;2.40;;;;;;;26.95;43.56;97596.82;105166;1285;22595;-83
2022/06/25 08:30:59;;;;;;;6.50;2.80;;;;;;;27.06;43.65;97595.18;105222;1284;22567;-82
2022/06/25 08:33:27;;;;;;;4.00;2.90;;;;;;;27.22;43.43;97589.53;105185;1286;24305;-83
2022/06/25 08:35:55;;;;;;;4.50;3.30;;;;;;;27.32;42.97;97590.11;105134;1287;23312;-83
2022/06/25 08:38:23;;;;;;;6.20;2.90;;;;;;;27.38;42.30;97590.64;105226;1284;24747;-83
2022/06/25 08:40:59;;;;;;;4.90;2.50;;;;;;;27.38;41.15;97589.39;105231;1284;22575;-83
2022/06/25 08:43:28;;;;;;;3.30;2.20;;;;;;;27.44;40.73;97593.33;104986;1287;24444;-83
2022/06/25 08:45:56;;;;;;;3.80;2.50;;;;;;;27.47;39.31;97591.46;105232;1284;22500;-83
2022/06/25 08:48:30;;;;;;;6.40;2.40;;;;;;;27.49;39.92;97593.09;105369;1284;22567;-83
2022/06/25 08:50:59;;;;;;;3.60;2.20;;;;;;;27.61;39.86;97595.97;105429;1284;22704;-82
2022/06/25 08:53:32;;;;;;;5.30;2.50;;;;;;;27.76;39.33;97595.98;105214;1286;22566;-83
2022/06/25 08:56:02;;;;;;;6.10;2.20;;;;;;;27.87;38.77;97600.98;104911;1288;22658;-83
2022/06/25 08:58:30;;;;;;;4.60;2.30;;;;;;;27.98;38.81;97600.56;105316;1284;23358;-83
2022/06/25 09:00:58;;;;;;;3.90;2.00;;;;;;;28.13;38.64;97604.02;105370;1284;24139;-83
2022/06/25 09:03:26;;;;;;;4.00;2.10;;;;;;;28.26;37.85;97605.52;105378;1284;22701;-83
2022/06/25 09:05:54;;;;;;;2.80;2.20;;;;;;;28.30;37.11;97600.92;105294;1285;22597;-83
2022/06/25 09:08:22;;;;;;;7.70;2.30;;;;;;;28.31;36.34;97602.09;105427;1284;23963;-82
2022/06/25 09:10:54;;;;;;;3.60;2.30;;;;;;;28.31;36.96;97602.96;105395;1284;22731;-84
2022/06/25 09:13:25;;;;;;;9.10;1.90;;;;;;;28.47;37.01;97603.96;105340;1284;22693;-83
2022/06/25 09:15:53;;;;;;;4.00;1.90;;;;;;;28.67;36.48;97603.25;105232;1285;22600;-83
2022/06/25 09:18:21;;;;;;;5.60;2.50;;;;;;;28.79;35.16;97602.70;105236;1284;24204;-84
2022/06/25 09:20:59;;;;;;;7.90;3.60;;;;;;;28.87;34.83;97606.42;105225;1285;22712;-83
2022/06/25 09:23:32;;;;;;;6.10;2.70;;;;;;;28.94;34.32;97604.69;105657;1284;24257;-82
2022/06/25 09:26:04;;;;;;;5.20;2.90;;;;;;;29.03;34.95;97602.85;107434;1284;22659;-82
2022/06/25 09:28:41;;;;;;;8.30;3.10;;;;;;;29.22;34.12;97601.51;105891;1284;22613;-83
2022/06/25 09:31:09;;;;;;;5.50;2.70;;;;;;;29.35;34.20;97606.14;105259;1284;22581;-84
2022/06/25 09:33:39;;;;;;;5.60;2.80;;;;;;;29.50;34.27;97603.88;105377;1284;24424;-82
2022/06/25 09:36:09;;;;;;;6.30;2.90;;;;;;;29.59;33.43;97610.71;105377;1284;25315;-82
2022/06/25 09:38:48;;;;;;;4.60;2.80;;;;;;;29.66;34.04;97609.09;105136;1284;25443;-82
2022/06/25 09:41:23;;;;;;;7.60;3.00;;;;;;;29.69;34.18;97606.06;105230;1285;23316;-82
2022/06/25 09:43:52;;;;;;;7.00;2.90;;;;;;;29.78;34.03;97604.90;105205;1285;22797;-83
2022/06/25 09:46:19;;;;;;;6.30;2.70;;;;;;;29.86;33.77;97602.06;105220;1284;22566;-84
2022/06/25 09:48:47;;;;;;;4.40;2.60;;;;;;;29.97;33.87;97598.24;105274;1285;24270;-83
2022/06/25 09:51:23;;;;;;;5.60;3.00;;;;;;;30.00;33.17;97600.63;105339;1284;22780;-83
2022/06/25 09:53:59;;;;;;;8.00;3.30;;;;;;;29.97;32.54;97604.50;105285;1285;25374;-84
2022/06/25 09:56:30;;;;;;;5.90;2.80;;;;;;;30.01;32.75;97604.56;105282;1284;23548;-82
2022/06/25 09:58:59;;;;;;;5.70;2.90;;;;;;;30.17;32.40;97595.34;105430;1284;23988;-82
2022/06/25 10:01:30;;;;;;;9.80;2.90;;;;;;;30.28;32.37;97596.27;105271;1285;22585;-82
2022/06/25 10:04:02;;;;;;;6.30;3.00;;;;;;;30.33;32.68;97598.68;105469;1284;23197;-83
2022/06/25 10:06:35;;;;;;;6.90;2.60;;;;;;;30.43;32.97;97596.11;104896;1285;25698;-84
2022/06/25 10:09:05;;;;;;;5.50;2.80;;;;;;;30.52;32.39;97590.61;105146;1284;24412;-84
2022/06/25 10:11:34;;;;;;;5.30;2.50;;;;;;;30.49;31.94;97590.52;105430;1284;25318;-83
2022/06/25 10:14:02;;;;;;;6.90;3.10;;;;;;;30.60;31.88;97593.49;105376;1284;22575;-83
2022/06/25 10:16:30;;;;;;;7.50;2.70;;;;;;;30.63;31.65;97593.89;105412;1284;22589;-84
2022/06/25 10:19:01;;;;;;;5.90;3.10;;;;;;;30.56;30.65;97587.48;105400;1284;24304;-83
2022/06/25 10:21:29;;;;;;;6.80;3.00;;;;;;;30.45;31.22;97590.79;105426;1284;24153;-83
2022/06/25 10:24:01;;;;;;;6.10;2.80;;;;;;;30.56;31.03;97589.70;105365;1284;23200;-82
2022/06/25 10:26:30;;;;;;;5.70;2.80;;;;;;;30.62;31.10;97587.16;105148;1285;22541;-83
2022/06/25 10:29:03;;;;;;;3.60;2.40;;;;;;;30.69;31.43;97586.39;105377;1284;24373;-83
2022/06/25 10:31:31;;;;;;;;;;;;;;;30.77;30.20;97585.84;105464;1284;23345;-82
2022/06/25 10:34:02;;;;;;;6.80;2.40;;;;;;;30.84;30.79;97583.31;105405;1284;22579;-83
2022/06/25 10:36:53;;;;;;;4.40;2.40;;;;;;;30.95;30.44;97582.09;105285;1285;22590;-83
2022/06/25 10:39:27;;;;;;;4.80;2.40;;;;;;;30.99;29.87;97575.15;105506;1284;25347;-83
2022/06/25 10:45:04;;;;;;;5.50;2.60;;;;;;;31.04;29.86;97573.40;105434;1284;25259;-83
2022/06/25 10:47:53;;;;;;;3.80;2.40;;;;;;;31.20;29.39;97580.72;105116;1286;22654;-82
2022/06/25 10:50:21;;;;;;;5.30;2.50;;;;;;;31.30;28.72;97582.01;105468;1284;22687;-84
2022/06/25 10:53:08;;;;;;;5.80;2.10;;;;;;;31.30;28.62;97575.95;105349;1284;22597;-83
2022/06/25 10:55:47;;;;;;;4.60;2.50;;;;;;;31.34;28.95;97577.34;105324;1284;22718;-84
2022/06/25 10:58:26;;;;;;;3.30;1.90;;;;;;;31.36;29.10;97575.55;105247;1285;23001;-82
2022/06/25 11:01:00;;;;;;;2.80;2.00;;;;;;;31.38;28.93;97575.10;105453;1284;22570;-83
2022/06/25 11:03:32;;;;;;;6.30;2.30;;;;;;;31.50;28.89;97575.34;105147;1285;22563;-82
2022/06/25 11:06:29;;;;;;;5.50;2.30;;;;;;;31.62;28.94;97574.86;105236;1285;24462;-83
2022/06/25 11:09:15;;;;;;;4.60;2.30;;;;;;;31.85;29.08;97575.00;105301;1284;24256;-82
2022/06/25 11:11:47;;;;;;;4.30;2.30;;;;;;;32.11;29.05;97571.50;105440;1284;22652;-84
2022/06/25 11:14:24;;;;;;;5.00;2.20;;;;;;;32.28;28.43;97571.57;105208;1285;25488;-83
2022/06/25 11:16:55;;;;;;;4.60;2.20;;;;;;;32.37;28.04;97568.45;105461;1284;22864;-85
2022/06/25 11:19:24;;;;;;;15.60;2.30;;;;;;;32.45;27.79;97570.40;105155;1287;22573;-83
2022/06/25 11:21:52;;;;;;;7.10;2.10;;;;;;;32.54;27.86;97575.52;105264;1285;25583;-84
2022/06/25 11:24:26;;;;;;;5.80;2.20;;;;;;;32.68;27.59;97576.75;105438;1284;25485;-83
2022/06/25 11:29:48;;;;;;;5.70;2.30;;;;;;;32.82;27.25;97572.73;105167;1284;22651;-84
2022/06/25 11:32:22;;;;;;;2.80;1.70;;;;;;;32.98;27.44;97566.96;105269;1284;22641;-83
2022/06/25 11:34:52;;;;;;;8.90;2.40;;;;;;;33.10;26.67;97568.50;105269;1284;24424;-84
2022/06/25 11:37:20;;;;;;;3.50;2.10;;;;;;;33.22;26.71;97563.98;105164;1284;22558;-83
2022/06/25 11:39:49;;;;;;;4.70;2.10;;;;;;;33.30;26.25;97571.81;105279;1284;22748;-82
2022/06/25 11:42:17;;;;;;;6.00;2.40;;;;;;;33.36;26.59;97574.25;105221;1284;25445;-85
2022/06/25 11:45:06;;;;;;;6.70;2.30;;;;;;;33.40;26.23;97570.34;107171;1285;24031;-81
2022/06/25 11:47:35;;;;;;;7.10;2.20;;;;;;;33.40;26.44;97568.12;105404;1287;22680;-83
2022/06/25 11:50:11;;;;;;;3.40;2.00;;;;;;;33.45;26.17;97564.20;104905;1287;22652;-83
2022/06/25 11:52:45;;;;;;;4.40;2.00;;;;;;;33.64;26.26;97563.38;104832;1287;23802;-83
2022/06/25 11:55:13;;;;;;;7.10;2.50;;;;;;;33.85;26.22;97566.09;105004;1287;24435;-83
2022/06/25 11:57:42;;;;;;;5.50;2.20;;;;;;;33.75;26.18;97571.13;104973;1287;22636;-82
2022/06/25 12:00:14;;;;;;;7.10;2.30;;;;;;;33.46;26.67;97566.30;105036;1287;24000;-82
2022/06/25 12:02:43;;;;;;;5.10;2.10;;;;;;;33.07;26.08;97564.00;104763;1287;25309;-83
2022/06/25 12:05:11;;;;;;;3.40;2.30;;;;;;;32.59;26.85;97569.20;104847;1287;24480;-83